Station Historical Data
Daily Summary for May 3, 2011 Units:  Both    English   Metric
« Previous Day
Next Day »
Daily Weekly Monthly Yearly Custom
  High: Low: Average:
Temperature: 63.1 °F /  17.3 °C 44.6 °F /  7 °C 52.1 °F /  11.2 °C
Dew Point: 60.8 °F /  16 °C 44.1 °F /  6.7 °C 49.3 °F /  9.6 °C
Humidity: 98% 73% 90%
Wind Speed: 13.0mph /  20.9km/h - 3.9mph /  6.3km/h
Wind Gust: 20.0mph /  32.2km/h - -
Wind- - West
Pressure: 30.26 in /  1024.6 hPa 29.91 in /  1012.8 hPa -
Precipitation: 1.12 in /  28.45 mm    
Historical Graphs
 
 
Tabular Data for May 3, 2011
Time Temperature Dew Point Pressure Wind Wind Speed Wind Gust Humidity Rainfall Rate (Hourly) Conditions
00:00 63.1 °F /  17.3 °C 60.7 °F /  15.9 °C 29.96in /  1014.4hPa WNW 8.0mph /  12.9km/h 11.0mph /  17.7km/h 92% 0.00in /  0mm
00:01 62.9 °F /  17.2 °C 60.8 °F /  16 °C 29.96in /  1014.4hPa NW 5.0mph /  8km/h 8.0mph /  12.9km/h 93% 0.00in /  0mm
00:02 62.8 °F /  17.1 °C 60.8 °F /  16 °C 29.97in /  1014.8hPa WNW 3.0mph /  4.8km/h 8.0mph /  12.9km/h 93% 0.00in /  0mm
00:06 62.5 °F /  16.9 °C 60.8 °F /  16 °C 29.97in /  1014.8hPa WNW 3.0mph /  4.8km/h 6.0mph /  9.7km/h 94% 0.00in /  0mm
00:11 62.2 °F /  16.8 °C 60.5 °F /  15.8 °C 29.97in /  1014.8hPa West 4.0mph /  6.4km/h 6.0mph /  9.7km/h 94% 0.00in /  0mm
00:16 61.8 °F /  16.6 °C 60.1 °F /  15.6 °C 29.97in /  1014.8hPa WNW 10.0mph /  16.1km/h 12.0mph /  19.3km/h 94% 0.00in /  0mm
00:21 60.9 °F /  16.1 °C 59.2 °F /  15.1 °C 29.98in /  1015.1hPa NW 12.0mph /  19.3km/h 12.0mph /  19.3km/h 94% 0.00in /  0mm
00:26 60.3 °F /  15.7 °C 58.6 °F /  14.8 °C 29.97in /  1014.8hPa NW 5.0mph /  8km/h 11.0mph /  17.7km/h 94% 0.00in /  0mm
00:27 60.2 °F /  15.7 °C 58.8 °F /  14.9 °C 29.98in /  1015.1hPa NW 5.0mph /  8km/h 11.0mph /  17.7km/h 95% 0.00in /  0mm
00:32 59.6 °F /  15.3 °C 58.2 °F /  14.6 °C 29.97in /  1014.8hPa NW 3.0mph /  4.8km/h 10.0mph /  16.1km/h 95% 0.00in /  0mm
00:33 59.6 °F /  15.3 °C 58.2 °F /  14.6 °C 29.97in /  1014.8hPa NW 6.0mph /  9.7km/h 9.0mph /  14.5km/h 95% 0.00in /  0mm
00:34 59.4 °F /  15.2 °C 58.0 °F /  14.4 °C 29.97in /  1014.8hPa NW 6.0mph /  9.7km/h 12.0mph /  19.3km/h 95% 0.00in /  0mm
00:36 59.2 °F /  15.1 °C 57.8 °F /  14.3 °C 29.97in /  1014.8hPa NW 5.0mph /  8km/h 10.0mph /  16.1km/h 95% 0.00in /  0mm
00:41 58.9 °F /  14.9 °C 57.5 °F /  14.2 °C 29.97in /  1014.8hPa NW 4.0mph /  6.4km/h 8.0mph /  12.9km/h 95% 0.00in /  0mm
00:46 58.9 °F /  14.9 °C 57.5 °F /  14.2 °C 29.96in /  1014.4hPa North 4.0mph /  6.4km/h 6.0mph /  9.7km/h 95% 0.00in /  0mm
00:51 58.7 °F /  14.8 °C 57.3 °F /  14.1 °C 29.96in /  1014.4hPa NNW 5.0mph /  8km/h 8.0mph /  12.9km/h 95% 0.00in /  0mm
00:52 58.6 °F /  14.8 °C 57.2 °F /  14 °C 29.96in /  1014.4hPa NNW 4.0mph /  6.4km/h 8.0mph /  12.9km/h 95% 0.00in /  0mm
00:56 58.5 °F /  14.7 °C 57.1 °F /  13.9 °C 29.97in /  1014.8hPa NW 4.0mph /  6.4km/h 7.0mph /  11.3km/h 95% 0.00in /  0mm
00:57 58.5 °F /  14.7 °C 57.1 °F /  13.9 °C 29.97in /  1014.8hPa NNW 5.0mph /  8km/h 7.0mph /  11.3km/h 95% 0.00in /  0mm
00:58 58.5 °F /  14.7 °C 57.1 °F /  13.9 °C 29.97in /  1014.8hPa NW 6.0mph /  9.7km/h 7.0mph /  11.3km/h 95% 0.00in /  0mm
01:00 58.3 °F /  14.6 °C 56.9 °F /  13.8 °C 29.97in /  1014.8hPa NW 3.0mph /  4.8km/h 7.0mph /  11.3km/h 95% 0.00in /  0mm
01:03 58.2 °F /  14.6 °C 56.8 °F /  13.8 °C 29.97in /  1014.8hPa NW 6.0mph /  9.7km/h 7.0mph /  11.3km/h 95% 0.00in /  0mm
01:08 58.1 °F /  14.5 °C 56.7 °F /  13.7 °C 29.97in /  1014.8hPa NNW 7.0mph /  11.3km/h 7.0mph /  11.3km/h 95% 0.00in /  0mm
01:13 57.9 °F /  14.4 °C 56.5 °F /  13.6 °C 29.97in /  1014.8hPa North 4.0mph /  6.4km/h 6.0mph /  9.7km/h 95% 0.00in /  0mm
01:18 57.7 °F /  14.3 °C 56.3 °F /  13.5 °C 29.97in /  1014.8hPa North 4.0mph /  6.4km/h 8.0mph /  12.9km/h 95% 0.00in /  0mm
01:23 57.4 °F /  14.1 °C 55.7 °F /  13.2 °C 29.97in /  1014.8hPa NNW 6.0mph /  9.7km/h 8.0mph /  12.9km/h 94% 0.00in /  0mm
01:28 57.2 °F /  14 °C 55.8 °F /  13.2 °C 29.96in /  1014.4hPa North 4.0mph /  6.4km/h 7.0mph /  11.3km/h 95% 0.00in /  0mm
01:30 57.2 °F /  14 °C 55.8 °F /  13.2 °C 29.96in /  1014.4hPa North 5.0mph /  8km/h 6.0mph /  9.7km/h 95% 0.00in /  0mm
01:33 57.1 °F /  13.9 °C 55.7 °F /  13.2 °C 29.97in /  1014.8hPa NW 6.0mph /  9.7km/h 7.0mph /  11.3km/h 95% 0.00in /  0mm
01:34 57.1 °F /  13.9 °C 55.7 °F /  13.2 °C 29.96in /  1014.4hPa NW 5.0mph /  8km/h 7.0mph /  11.3km/h 95% 0.00in /  0mm
01:36 57.0 °F /  13.9 °C 55.6 °F /  13.1 °C 29.96in /  1014.4hPa NNW 5.0mph /  8km/h 7.0mph /  11.3km/h 95% 0.00in /  0mm
01:39 57.0 °F /  13.9 °C 55.6 °F /  13.1 °C 29.96in /  1014.4hPa North 7.0mph /  11.3km/h 9.0mph /  14.5km/h 95% 0.00in /  0mm
01:41 56.9 °F /  13.8 °C 55.5 °F /  13.1 °C 29.96in /  1014.4hPa NW 3.0mph /  4.8km/h 9.0mph /  14.5km/h 95% 0.00in /  0mm
01:46 56.9 °F /  13.8 °C 55.5 °F /  13.1 °C 29.96in /  1014.4hPa NNE 1.0mph /  1.6km/h 6.0mph /  9.7km/h 95% 0.00in /  0mm
01:51 56.8 °F /  13.8 °C 55.4 °F /  13 °C 29.95in /  1014.1hPa North 2.0mph /  3.2km/h 4.0mph /  6.4km/h 95% 0.00in /  0mm
01:52 56.8 °F /  13.8 °C 55.4 °F /  13 °C 29.95in /  1014.1hPa North 2.0mph /  3.2km/h 4.0mph /  6.4km/h 95% 0.00in /  0mm
01:57 56.7 °F /  13.7 °C 55.3 °F /  12.9 °C 29.95in /  1014.1hPa NE 4.0mph /  6.4km/h 4.0mph /  6.4km/h 95% 0.00in /  0mm
01:58 56.7 °F /  13.7 °C 55.3 °F /  12.9 °C 29.95in /  1014.1hPa North 3.0mph /  4.8km/h 4.0mph /  6.4km/h 95% 0.00in /  0mm
02:00 56.7 °F /  13.7 °C 55.3 °F /  12.9 °C 29.94in /  1013.8hPa NNE 2.0mph /  3.2km/h 5.0mph /  8km/h 95% 0.00in /  0mm
02:02 56.7 °F /  13.7 °C 55.3 °F /  12.9 °C 29.94in /  1013.8hPa North 2.0mph /  3.2km/h 3.0mph /  4.8km/h 95% 0.00in /  0mm
02:07 56.6 °F /  13.7 °C 55.2 °F /  12.9 °C 29.94in /  1013.8hPa NNW 4.0mph /  6.4km/h 4.0mph /  6.4km/h 95% 0.00in /  0mm
02:12 56.6 °F /  13.7 °C 55.5 °F /  13.1 °C 29.94in /  1013.8hPa NNW 3.0mph /  4.8km/h 5.0mph /  8km/h 96% 0.00in /  0mm
02:13 56.6 °F /  13.7 °C 55.5 °F /  13.1 °C 29.94in /  1013.8hPa NW 4.0mph /  6.4km/h 5.0mph /  8km/h 96% 0.00in /  0mm
02:18 56.6 °F /  13.7 °C 55.5 °F /  13.1 °C 29.94in /  1013.8hPa NNW 2.0mph /  3.2km/h 4.0mph /  6.4km/h 96% 0.00in /  0mm
02:23 56.6 °F /  13.7 °C 55.5 °F /  13.1 °C 29.94in /  1013.8hPa NE 2.0mph /  3.2km/h 6.0mph /  9.7km/h 96% 0.00in /  0mm
02:28 56.6 °F /  13.7 °C 55.2 °F /  12.9 °C 29.94in /  1013.8hPa NE 2.0mph /  3.2km/h 5.0mph /  8km/h 95% 0.00in /  0mm
02:29 56.6 °F /  13.7 °C 55.2 °F /  12.9 °C 29.94in /  1013.8hPa NNE 2.0mph /  3.2km/h 4.0mph /  6.4km/h 95% 0.00in /  0mm
02:30 56.5 °F /  13.6 °C 55.1 °F /  12.8 °C 29.94in /  1013.8hPa NNE 3.0mph /  4.8km/h 5.0mph /  8km/h 95% 0.00in /  0mm
02:33 56.5 °F /  13.6 °C 55.1 °F /  12.8 °C 29.94in /  1013.8hPa NNW 2.0mph /  3.2km/h 4.0mph /  6.4km/h 95% 0.00in /  0mm
02:34 56.5 °F /  13.6 °C 55.1 °F /  12.8 °C 29.94in /  1013.8hPa NE 2.0mph /  3.2km/h 4.0mph /  6.4km/h 95% 0.00in /  0mm
02:37 56.5 °F /  13.6 °C 55.1 °F /  12.8 °C 29.94in /  1013.8hPa NNE 2.0mph /  3.2km/h 3.0mph /  4.8km/h 95% 0.00in /  0mm
02:38 56.5 °F /  13.6 °C 55.1 °F /  12.8 °C 29.94in /  1013.8hPa NNE 4.0mph /  6.4km/h 4.0mph /  6.4km/h 95% 0.00in /  0mm
02:39 56.5 °F /  13.6 °C 55.1 °F /  12.8 °C 29.94in /  1013.8hPa NE 4.0mph /  6.4km/h 4.0mph /  6.4km/h 95% 0.00in /  0mm
02:44 56.4 °F /  13.6 °C 55.0 °F /  12.8 °C 29.94in /  1013.8hPa NNE 4.0mph /  6.4km/h 7.0mph /  11.3km/h 95% 0.00in /  0mm
02:49 56.4 °F /  13.6 °C 55.0 °F /  12.8 °C 29.93in /  1013.4hPa NNE 4.0mph /  6.4km/h 7.0mph /  11.3km/h 95% 0.00in /  0mm
02:54 56.4 °F /  13.6 °C 55.0 °F /  12.8 °C 29.92in /  1013.1hPa ESE 1.0mph /  1.6km/h 5.0mph /  8km/h 95% 0.00in /  0mm
02:56 56.4 °F /  13.6 °C 55.0 °F /  12.8 °C 29.92in /  1013.1hPa ENE 2.0mph /  3.2km/h 5.0mph /  8km/h 95% 0.00in /  0mm
02:59 56.4 °F /  13.6 °C 55.0 °F /  12.8 °C 29.92in /  1013.1hPa East 3.0mph /  4.8km/h 4.0mph /  6.4km/h 95% 0.00in /  0mm
03:00 56.4 °F /  13.6 °C 55.0 °F /  12.8 °C 29.92in /  1013.1hPa ESE 3.0mph /  4.8km/h 4.0mph /  6.4km/h 95% 0.00in /  0mm
03:04 56.5 °F /  13.6 °C 55.1 °F /  12.8 °C 29.92in /  1013.1hPa ENE 1.0mph /  1.6km/h 4.0mph /  6.4km/h 95% 0.00in /  0mm
03:09 56.5 °F /  13.6 °C 55.1 °F /  12.8 °C 29.92in /  1013.1hPa NE 5.0mph /  8km/h 6.0mph /  9.7km/h 95% 0.00in /  0mm
03:14 56.5 °F /  13.6 °C 55.4 °F /  13 °C 29.92in /  1013.1hPa ENE 2.0mph /  3.2km/h 4.0mph /  6.4km/h 96% 0.00in /  0mm
03:19 56.6 °F /  13.7 °C 55.5 °F /  13.1 °C 29.91in /  1012.8hPa ENE 2.0mph /  3.2km/h 5.0mph /  8km/h 96% 0.00in /  0mm
03:20 56.6 °F /  13.7 °C 55.5 °F /  13.1 °C 29.91in /  1012.8hPa East 4.0mph /  6.4km/h 5.0mph /  8km/h 96% 0.00in /  0mm
03:25 56.7 °F /  13.7 °C 55.6 °F /  13.1 °C 29.91in /  1012.8hPa East 2.0mph /  3.2km/h 5.0mph /  8km/h 96% 0.00in /  0mm
03:26 56.7 °F /  13.7 °C 55.6 °F /  13.1 °C 29.91in /  1012.8hPa East 1.0mph /  1.6km/h 5.0mph /  8km/h 96% 0.00in /  0mm
03:30 56.7 °F /  13.7 °C 55.6 °F /  13.1 °C 29.91in /  1012.8hPa NE 1.0mph /  1.6km/h 3.0mph /  4.8km/h 96% 0.00in /  0mm
03:31 56.7 °F /  13.7 °C 55.6 °F /  13.1 °C 29.91in /  1012.8hPa NE 1.0mph /  1.6km/h 3.0mph /  4.8km/h 96% 0.00in /  0mm
03:36 56.7 °F /  13.7 °C 55.6 °F /  13.1 °C 29.91in /  1012.8hPa ENE 3.0mph /  4.8km/h 4.0mph /  6.4km/h 96% 0.00in /  0mm
03:41 56.7 °F /  13.7 °C 55.6 °F /  13.1 °C 29.91in /  1012.8hPa NW 2.0mph /  3.2km/h 2.0mph /  3.2km/h 96% 0.00in /  0mm
03:46 56.3 °F /  13.5 °C 54.6 °F /  12.6 °C 29.94in /  1013.8hPa WNW 9.0mph /  14.5km/h 18.0mph /  29km/h 94% 0.00in /  0mm
04:00 56.0 °F /  13.3 °C 54.9 °F /  12.7 °C 29.94in /  1013.8hPa WNW 6.0mph /  9.7km/h 20.0mph /  32.2km/h 96% 3.79in /  96.27mm
04:30 53.5 °F /  11.9 °C 52.4 °F /  11.3 °C 29.95in /  1014.1hPa WNW 6.0mph /  9.7km/h 13.0mph /  20.9km/h 96% 0.23in /  5.84mm
05:00 52.6 °F /  11.4 °C 51.2 °F /  10.7 °C 29.97in /  1014.8hPa NW 6.0mph /  9.7km/h 13.0mph /  20.9km/h 95% 0.00in /  0mm
05:30 51.6 °F /  10.9 °C 50.2 °F /  10.1 °C 29.99in /  1015.5hPa WNW 6.0mph /  9.7km/h 15.0mph /  24.1km/h 95% 0.00in /  0mm
06:00 49.8 °F /  9.9 °C 48.4 °F /  9.1 °C 30.00in /  1015.8hPa NW 8.0mph /  12.9km/h 14.0mph /  22.5km/h 95% 0.00in /  0mm
06:30 48.9 °F /  9.4 °C 47.5 °F /  8.6 °C 30.02in /  1016.5hPa NW 6.0mph /  9.7km/h 14.0mph /  22.5km/h 95% 0.00in /  0mm
07:00 48.5 °F /  9.2 °C 47.4 °F /  8.6 °C 30.02in /  1016.5hPa NW 7.0mph /  11.3km/h 16.0mph /  25.7km/h 96% 0.56in /  14.22mm
08:00 47.4 °F /  8.6 °C 46.3 °F /  7.9 °C 30.05in /  1017.5hPa NW 7.0mph /  11.3km/h 14.0mph /  22.5km/h 96% 1.36in /  34.54mm
08:30 47.3 °F /  8.5 °C 46.2 °F /  7.9 °C 30.08in /  1018.5hPa NNW 5.0mph /  8km/h 10.0mph /  16.1km/h 96% 0.63in /  16mm
09:00 47.4 °F /  8.6 °C 46.6 °F /  8.1 °C 30.09in /  1018.8hPa WNW 4.0mph /  6.4km/h 8.0mph /  12.9km/h 97% 0.52in /  13.21mm
09:30 47.6 °F /  8.7 °C 46.5 °F /  8.1 °C 30.10in /  1019.2hPa NW 4.0mph /  6.4km/h 9.0mph /  14.5km/h 96% 0.15in /  3.81mm
10:30 47.9 °F /  8.8 °C 46.8 °F /  8.2 °C 30.12in /  1019.9hPa NW 5.0mph /  8km/h 11.0mph /  17.7km/h 96% 0.05in /  1.27mm
10:31 47.8 °F /  8.8 °C 46.7 °F /  8.2 °C 30.12in /  1019.9hPa North 5.0mph /  8km/h 6.0mph /  9.7km/h 96% 0.16in /  4.06mm
10:35 47.7 °F /  8.7 °C 46.6 °F /  8.1 °C 30.13in /  1020.2hPa NW 6.0mph /  9.7km/h 9.0mph /  14.5km/h 96% 0.12in /  3.05mm
10:37 47.7 °F /  8.7 °C 46.6 °F /  8.1 °C 30.14in /  1020.5hPa NW 6.0mph /  9.7km/h 9.0mph /  14.5km/h 96% 0.19in /  4.83mm
10:42 47.8 °F /  8.8 °C 46.7 °F /  8.2 °C 30.16in /  1021.2hPa West 3.0mph /  4.8km/h 8.0mph /  12.9km/h 96% 0.16in /  4.06mm
10:47 47.9 °F /  8.8 °C 46.8 °F /  8.2 °C 30.15in /  1020.9hPa NW 4.0mph /  6.4km/h 5.0mph /  8km/h 96% 0.11in /  2.79mm
10:48 48.0 °F /  8.9 °C 46.9 °F /  8.3 °C 30.15in /  1020.9hPa NW 3.0mph /  4.8km/h 5.0mph /  8km/h 96% 0.11in /  2.79mm
10:53 48.1 °F /  8.9 °C 47.0 °F /  8.3 °C 30.15in /  1020.9hPa NW 4.0mph /  6.4km/h 8.0mph /  12.9km/h 96% 0.12in /  3.05mm
10:58 48.2 °F /  9 °C 47.4 °F /  8.6 °C 30.16in /  1021.2hPa NNW 3.0mph /  4.8km/h 4.0mph /  6.4km/h 97% 0.08in /  2.03mm
11:03 48.2 °F /  9 °C 47.1 °F /  8.4 °C 30.15in /  1020.9hPa NNW 3.0mph /  4.8km/h 7.0mph /  11.3km/h 96% 0.04in /  1.02mm
11:08 48.3 °F /  9.1 °C 47.2 °F /  8.4 °C 30.15in /  1020.9hPa NW 9.0mph /  14.5km/h 9.0mph /  14.5km/h 96% 0.00in /  0mm
11:09 48.3 °F /  9.1 °C 47.2 °F /  8.4 °C 30.15in /  1020.9hPa NNW 7.0mph /  11.3km/h 9.0mph /  14.5km/h 96% 0.00in /  0mm
11:14 48.3 °F /  9.1 °C 46.9 °F /  8.3 °C 30.15in /  1020.9hPa NNW 7.0mph /  11.3km/h 9.0mph /  14.5km/h 95% 0.00in /  0mm
11:17 48.3 °F /  9.1 °C 46.9 °F /  8.3 °C 30.13in /  1020.2hPa NNW 13.0mph /  20.9km/h 14.0mph /  22.5km/h 95% 0.00in /  0mm
11:22 48.6 °F /  9.2 °C 47.2 °F /  8.4 °C 30.14in /  1020.5hPa NW 4.0mph /  6.4km/h 13.0mph /  20.9km/h 95% 0.00in /  0mm
11:27 48.7 °F /  9.3 °C 47.3 °F /  8.5 °C 30.15in /  1020.9hPa NNW 5.0mph /  8km/h 11.0mph /  17.7km/h 95% 0.00in /  0mm
11:32 48.7 °F /  9.3 °C 47.3 °F /  8.5 °C 30.16in /  1021.2hPa NW 5.0mph /  8km/h 10.0mph /  16.1km/h 95% 0.00in /  0mm
11:33 48.6 °F /  9.2 °C 47.2 °F /  8.4 °C 30.17in /  1021.6hPa WNW 2.0mph /  3.2km/h 10.0mph /  16.1km/h 95% 0.00in /  0mm
11:34 48.7 °F /  9.3 °C 47.3 °F /  8.5 °C 30.17in /  1021.6hPa West 6.0mph /  9.7km/h 7.0mph /  11.3km/h 95% 0.00in /  0mm
11:35 48.6 °F /  9.2 °C 47.2 °F /  8.4 °C 30.17in /  1021.6hPa NNW 5.0mph /  8km/h 6.0mph /  9.7km/h 95% 0.00in /  0mm
11:38 48.6 °F /  9.2 °C 47.2 °F /  8.4 °C 30.17in /  1021.6hPa NW 9.0mph /  14.5km/h 10.0mph /  16.1km/h 95% 0.00in /  0mm
11:43 48.5 °F /  9.2 °C 47.1 °F /  8.4 °C 30.17in /  1021.6hPa West 3.0mph /  4.8km/h 11.0mph /  17.7km/h 95% 0.19in /  4.83mm
11:48 48.4 °F /  9.1 °C 47.0 °F /  8.3 °C 30.17in /  1021.6hPa NW 8.0mph /  12.9km/h 10.0mph /  16.1km/h 95% 0.17in /  4.32mm
11:53 48.4 °F /  9.1 °C 47.0 °F /  8.3 °C 30.19in /  1022.2hPa NNW 4.0mph /  6.4km/h 6.0mph /  9.7km/h 95% 0.17in /  4.32mm
11:54 48.3 °F /  9.1 °C 46.9 °F /  8.3 °C 30.19in /  1022.2hPa NNW 3.0mph /  4.8km/h 6.0mph /  9.7km/h 95% 0.17in /  4.32mm
11:57 48.3 °F /  9.1 °C 46.7 °F /  8.2 °C 30.19in /  1022.2hPa North 7.0mph /  11.3km/h 11.0mph /  17.7km/h 94% 0.15in /  3.81mm
11:59 48.2 °F /  9 °C 46.6 °F /  8.1 °C 30.18in /  1021.9hPa NW 6.0mph /  9.7km/h 9.0mph /  14.5km/h 94% 0.15in /  3.81mm
12:04 48.1 °F /  8.9 °C 46.7 °F /  8.2 °C 30.18in /  1021.9hPa WNW 3.0mph /  4.8km/h 9.0mph /  14.5km/h 95% 0.12in /  3.05mm
12:09 48.1 °F /  8.9 °C 46.7 °F /  8.2 °C 30.18in /  1021.9hPa NW 4.0mph /  6.4km/h 6.0mph /  9.7km/h 95% 0.12in /  3.05mm
12:14 48.0 °F /  8.9 °C 46.6 °F /  8.1 °C 30.18in /  1021.9hPa NW 8.0mph /  12.9km/h 9.0mph /  14.5km/h 95% 0.18in /  4.57mm
12:20 48.0 °F /  8.9 °C 46.6 °F /  8.1 °C 30.19in /  1022.2hPa NW 5.0mph /  8km/h 6.0mph /  9.7km/h 95% 0.20in /  5.08mm
12:26 47.9 °F /  8.8 °C 46.8 °F /  8.2 °C 30.19in /  1022.2hPa NW 5.0mph /  8km/h 7.0mph /  11.3km/h 96% 0.17in /  4.32mm
12:31 47.8 °F /  8.8 °C 46.4 °F /  8 °C 30.19in /  1022.2hPa WNW 6.0mph /  9.7km/h 11.0mph /  17.7km/h 95% 0.08in /  2.03mm
12:35 47.7 °F /  8.7 °C 46.3 °F /  7.9 °C 30.19in /  1022.2hPa NNW 8.0mph /  12.9km/h 12.0mph /  19.3km/h 95% 0.06in /  1.52mm
12:37 47.7 °F /  8.7 °C 46.3 °F /  7.9 °C 30.19in /  1022.2hPa NNW 6.0mph /  9.7km/h 9.0mph /  14.5km/h 95% 0.06in /  1.52mm
12:42 47.6 °F /  8.7 °C 46.2 °F /  7.9 °C 30.20in /  1022.6hPa WNW 4.0mph /  6.4km/h 8.0mph /  12.9km/h 95% 0.07in /  1.78mm
12:47 47.6 °F /  8.7 °C 46.2 °F /  7.9 °C 30.20in /  1022.6hPa NW 5.0mph /  8km/h 8.0mph /  12.9km/h 95% 0.07in /  1.78mm
12:52 47.5 °F /  8.6 °C 46.1 °F /  7.8 °C 30.19in /  1022.2hPa NNW 7.0mph /  11.3km/h 12.0mph /  19.3km/h 95% 0.07in /  1.78mm
12:53 47.5 °F /  8.6 °C 46.1 °F /  7.8 °C 30.18in /  1021.9hPa WNW 10.0mph /  16.1km/h 12.0mph /  19.3km/h 95% 0.07in /  1.78mm
12:57 47.5 °F /  8.6 °C 46.1 °F /  7.8 °C 30.18in /  1021.9hPa NNW 10.0mph /  16.1km/h 13.0mph /  20.9km/h 95% 0.07in /  1.78mm
12:58 47.5 °F /  8.6 °C 46.1 °F /  7.8 °C 30.18in /  1021.9hPa NNW 12.0mph /  19.3km/h 13.0mph /  20.9km/h 95% 0.08in /  2.03mm
13:03 47.3 °F /  8.5 °C 45.9 °F /  7.7 °C 30.19in /  1022.2hPa NW 8.0mph /  12.9km/h 11.0mph /  17.7km/h 95% 0.20in /  5.08mm
13:08 47.2 °F /  8.4 °C 45.8 °F /  7.7 °C 30.19in /  1022.2hPa NNW 7.0mph /  11.3km/h 9.0mph /  14.5km/h 95% 0.15in /  3.81mm
13:13 47.2 °F /  8.4 °C 45.8 °F /  7.7 °C 30.18in /  1021.9hPa North 4.0mph /  6.4km/h 11.0mph /  17.7km/h 95% 0.10in /  2.54mm
13:14 47.2 °F /  8.4 °C 45.8 °F /  7.7 °C 30.18in /  1021.9hPa NW 10.0mph /  16.1km/h 10.0mph /  16.1km/h 95% 0.10in /  2.54mm
13:19 47.2 °F /  8.4 °C 45.8 °F /  7.7 °C 30.18in /  1021.9hPa NNW 6.0mph /  9.7km/h 9.0mph /  14.5km/h 95% 0.12in /  3.05mm
13:24 47.4 °F /  8.6 °C 46.0 °F /  7.8 °C 30.18in /  1021.9hPa North 6.0mph /  9.7km/h 10.0mph /  16.1km/h 95% 0.09in /  2.29mm
13:29 47.5 °F /  8.6 °C 46.1 °F /  7.8 °C 30.18in /  1021.9hPa NNW 7.0mph /  11.3km/h 10.0mph /  16.1km/h 95% 0.08in /  2.03mm
13:30 47.5 °F /  8.6 °C 46.1 °F /  7.8 °C 30.18in /  1021.9hPa North 7.0mph /  11.3km/h 10.0mph /  16.1km/h 95% 0.07in /  1.78mm
13:35 47.6 °F /  8.7 °C 46.2 °F /  7.9 °C 30.18in /  1021.9hPa NW 5.0mph /  8km/h 11.0mph /  17.7km/h 95% 0.05in /  1.27mm
13:37 47.7 °F /  8.7 °C 46.3 °F /  7.9 °C 30.18in /  1021.9hPa NNW 7.0mph /  11.3km/h 12.0mph /  19.3km/h 95% 0.04in /  1.02mm
13:40 47.9 °F /  8.8 °C 46.5 °F /  8.1 °C 30.18in /  1021.9hPa NW 10.0mph /  16.1km/h 10.0mph /  16.1km/h 95% 0.00in /  0mm
13:45 47.9 °F /  8.8 °C 46.5 °F /  8.1 °C 30.20in /  1022.6hPa NW 6.0mph /  9.7km/h 10.0mph /  16.1km/h 95% 0.00in /  0mm
13:50 47.9 °F /  8.8 °C 46.3 °F /  7.9 °C 30.21in /  1022.9hPa WNW 6.0mph /  9.7km/h 9.0mph /  14.5km/h 94% 0.00in /  0mm
13:51 47.9 °F /  8.8 °C 46.3 °F /  7.9 °C 30.21in /  1022.9hPa WNW 6.0mph /  9.7km/h 9.0mph /  14.5km/h 94% 0.00in /  0mm
13:55 47.9 °F /  8.8 °C 46.3 °F /  7.9 °C 30.21in /  1022.9hPa NNW 4.0mph /  6.4km/h 9.0mph /  14.5km/h 94% 0.00in /  0mm
13:56 48.0 °F /  8.9 °C 46.4 °F /  8 °C 30.21in /  1022.9hPa NW 10.0mph /  16.1km/h 10.0mph /  16.1km/h 94% 0.00in /  0mm
14:01 48.1 °F /  8.9 °C 46.5 °F /  8.1 °C 30.21in /  1022.9hPa NW 5.0mph /  8km/h 8.0mph /  12.9km/h 94% 0.00in /  0mm
14:06 48.1 °F /  8.9 °C 46.2 °F /  7.9 °C 30.20in /  1022.6hPa NNW 5.0mph /  8km/h 8.0mph /  12.9km/h 93% 0.00in /  0mm
14:11 48.3 °F /  9.1 °C 46.4 °F /  8 °C 30.20in /  1022.6hPa North 7.0mph /  11.3km/h 10.0mph /  16.1km/h 93% 0.00in /  0mm
14:12 48.3 °F /  9.1 °C 46.4 °F /  8 °C 30.20in /  1022.6hPa NNW 8.0mph /  12.9km/h 10.0mph /  16.1km/h 93% 0.00in /  0mm
14:17 48.5 °F /  9.2 °C 46.6 °F /  8.1 °C 30.21in /  1022.9hPa North 10.0mph /  16.1km/h 10.0mph /  16.1km/h 93% 0.00in /  0mm
14:22 48.4 °F /  9.1 °C 46.5 °F /  8.1 °C 30.21in /  1022.9hPa WNW 6.0mph /  9.7km/h 11.0mph /  17.7km/h 93% 0.00in /  0mm
14:27 48.4 °F /  9.1 °C 46.5 °F /  8.1 °C 30.21in /  1022.9hPa NNW 3.0mph /  4.8km/h 7.0mph /  11.3km/h 93% 0.00in /  0mm
14:28 48.4 °F /  9.1 °C 46.5 °F /  8.1 °C 30.21in /  1022.9hPa North 6.0mph /  9.7km/h 6.0mph /  9.7km/h 93% 0.00in /  0mm
14:29 48.4 °F /  9.1 °C 46.5 °F /  8.1 °C 30.20in /  1022.6hPa NW 6.0mph /  9.7km/h 10.0mph /  16.1km/h 93% 0.00in /  0mm
14:33 48.4 °F /  9.1 °C 46.2 °F /  7.9 °C 30.21in /  1022.9hPa NW 4.0mph /  6.4km/h 12.0mph /  19.3km/h 92% 0.00in /  0mm
14:36 48.4 °F /  9.1 °C 46.2 °F /  7.9 °C 30.20in /  1022.6hPa NNW 6.0mph /  9.7km/h 8.0mph /  12.9km/h 92% 0.00in /  0mm
14:41 48.4 °F /  9.1 °C 46.5 °F /  8.1 °C 30.20in /  1022.6hPa NW 10.0mph /  16.1km/h 10.0mph /  16.1km/h 93% 0.00in /  0mm
14:42 48.4 °F /  9.1 °C 46.5 °F /  8.1 °C 30.20in /  1022.6hPa NW 10.0mph /  16.1km/h 10.0mph /  16.1km/h 93% 0.00in /  0mm
14:47 48.3 °F /  9.1 °C 46.4 °F /  8 °C 30.20in /  1022.6hPa NNW 7.0mph /  11.3km/h 8.0mph /  12.9km/h 93% 0.00in /  0mm
14:52 48.2 °F /  9 °C 46.3 °F /  7.9 °C 30.19in /  1022.2hPa NW 4.0mph /  6.4km/h 9.0mph /  14.5km/h 93% 0.00in /  0mm
14:53 48.2 °F /  9 °C 46.3 °F /  7.9 °C 30.19in /  1022.2hPa North 9.0mph /  14.5km/h 11.0mph /  17.7km/h 93% 0.00in /  0mm
14:57 48.1 °F /  8.9 °C 45.9 °F /  7.7 °C 30.20in /  1022.6hPa NW 7.0mph /  11.3km/h 16.0mph /  25.7km/h 92% 0.00in /  0mm
14:58 48.1 °F /  8.9 °C 45.9 °F /  7.7 °C 30.20in /  1022.6hPa North 9.0mph /  14.5km/h 16.0mph /  25.7km/h 92% 0.00in /  0mm
15:03 48.1 °F /  8.9 °C 46.2 °F /  7.9 °C 30.20in /  1022.6hPa NW 6.0mph /  9.7km/h 9.0mph /  14.5km/h 93% 0.00in /  0mm
15:05 48.2 °F /  9 °C 46.3 °F /  7.9 °C 30.20in /  1022.6hPa North 4.0mph /  6.4km/h 9.0mph /  14.5km/h 93% 0.00in /  0mm
15:08 48.2 °F /  9 °C 46.3 °F /  7.9 °C 30.20in /  1022.6hPa NNW 10.0mph /  16.1km/h 10.0mph /  16.1km/h 93% 0.00in /  0mm
15:13 48.3 °F /  9.1 °C 46.4 °F /  8 °C 30.20in /  1022.6hPa NNW 4.0mph /  6.4km/h 12.0mph /  19.3km/h 93% 0.00in /  0mm
15:18 49.2 °F /  9.6 °C 47.3 °F /  8.5 °C 30.19in /  1022.2hPa NW 7.0mph /  11.3km/h 9.0mph /  14.5km/h 93% 0.00in /  0mm
15:23 49.5 °F /  9.7 °C 46.4 °F /  8 °C 30.19in /  1022.2hPa WNW 11.0mph /  17.7km/h 15.0mph /  24.1km/h 89% 0.00in /  0mm
15:28 49.6 °F /  9.8 °C 46.8 °F /  8.2 °C 30.20in /  1022.6hPa NW 4.0mph /  6.4km/h 10.0mph /  16.1km/h 90% 0.00in /  0mm
15:29 49.7 °F /  9.8 °C 46.9 °F /  8.3 °C 30.20in /  1022.6hPa North 5.0mph /  8km/h 10.0mph /  16.1km/h 90% 0.00in /  0mm
15:30 49.8 °F /  9.9 °C 47.0 °F /  8.3 °C 30.20in /  1022.6hPa NNW 8.0mph /  12.9km/h 10.0mph /  16.1km/h 90% 0.00in /  0mm
15:34 50.1 °F /  10.1 °C 47.0 °F /  8.3 °C 30.20in /  1022.6hPa NNE 7.0mph /  11.3km/h 11.0mph /  17.7km/h 89% 0.00in /  0mm
15:36 50.1 °F /  10.1 °C 47.3 °F /  8.5 °C 30.20in /  1022.6hPa NW 5.0mph /  8km/h 9.0mph /  14.5km/h 90% 0.00in /  0mm
15:41 50.5 °F /  10.3 °C 47.1 °F /  8.4 °C 30.20in /  1022.6hPa NNW 5.0mph /  8km/h 11.0mph /  17.7km/h 88% 0.00in /  0mm
15:46 50.9 °F /  10.5 °C 47.5 °F /  8.6 °C 30.20in /  1022.6hPa NNW 8.0mph /  12.9km/h 9.0mph /  14.5km/h 88% 0.00in /  0mm
15:51 51.8 °F /  11 °C 49.0 °F /  9.4 °C 30.20in /  1022.6hPa WNW 11.0mph /  17.7km/h 11.0mph /  17.7km/h 90% 0.00in /  0mm
15:56 52.5 °F /  11.4 °C 48.4 °F /  9.1 °C 30.20in /  1022.6hPa NNW 8.0mph /  12.9km/h 11.0mph /  17.7km/h 86% 0.00in /  0mm
15:57 52.5 °F /  11.4 °C 48.4 °F /  9.1 °C 30.21in /  1022.9hPa NW 12.0mph /  19.3km/h 12.0mph /  19.3km/h 86% 0.00in /  0mm
16:02 52.6 °F /  11.4 °C 47.3 °F /  8.5 °C 30.21in /  1022.9hPa NNE 7.0mph /  11.3km/h 12.0mph /  19.3km/h 82% 0.00in /  0mm
16:07 52.3 °F /  11.3 °C 47.3 °F /  8.5 °C 30.20in /  1022.6hPa NNW 9.0mph /  14.5km/h 11.0mph /  17.7km/h 83% 0.00in /  0mm
16:12 51.9 °F /  11.1 °C 47.2 °F /  8.4 °C 30.20in /  1022.6hPa NNW 7.0mph /  11.3km/h 8.0mph /  12.9km/h 84% 0.00in /  0mm
16:17 51.7 °F /  10.9 °C 47.3 °F /  8.5 °C 30.20in /  1022.6hPa NNW 5.0mph /  8km/h 6.0mph /  9.7km/h 85% 0.00in /  0mm
16:18 51.7 °F /  10.9 °C 47.3 °F /  8.5 °C 30.20in /  1022.6hPa WNW 5.0mph /  8km/h 6.0mph /  9.7km/h 85% 0.00in /  0mm
16:23 51.6 °F /  10.9 °C 47.2 °F /  8.4 °C 30.20in /  1022.6hPa NNE 6.0mph /  9.7km/h 7.0mph /  11.3km/h 85% 0.00in /  0mm
16:28 51.5 °F /  10.8 °C 47.2 °F /  8.4 °C 30.20in /  1022.6hPa NNW 6.0mph /  9.7km/h 8.0mph /  12.9km/h 85% 0.00in /  0mm
16:29 51.5 °F /  10.8 °C 47.2 °F /  8.4 °C 30.19in /  1022.2hPa NW 5.0mph /  8km/h 8.0mph /  12.9km/h 85% 0.00in /  0mm
16:30 51.6 °F /  10.9 °C 47.2 °F /  8.4 °C 30.19in /  1022.2hPa NNW 4.0mph /  6.4km/h 7.0mph /  11.3km/h 85% 0.00in /  0mm
16:31 51.7 °F /  10.9 °C 48.0 °F /  8.9 °C 30.19in /  1022.2hPa NNW 4.0mph /  6.4km/h 7.0mph /  11.3km/h 87% 0.00in /  0mm
16:34 52.0 °F /  11.1 °C 47.6 °F /  8.7 °C 30.20in /  1022.6hPa NW 3.0mph /  4.8km/h 6.0mph /  9.7km/h 85% 0.00in /  0mm
16:35 52.2 °F /  11.2 °C 47.8 °F /  8.8 °C 30.20in /  1022.6hPa NNW 2.0mph /  3.2km/h 6.0mph /  9.7km/h 85% 0.00in /  0mm
16:37 52.2 °F /  11.2 °C 48.2 °F /  9 °C 30.20in /  1022.6hPa NW 4.0mph /  6.4km/h 6.0mph /  9.7km/h 86% 0.00in /  0mm
16:42 52.5 °F /  11.4 °C 47.8 °F /  8.8 °C 30.19in /  1022.2hPa North 2.0mph /  3.2km/h 5.0mph /  8km/h 84% 0.00in /  0mm
16:43 52.6 °F /  11.4 °C 47.9 °F /  8.8 °C 30.19in /  1022.2hPa NNE 3.0mph /  4.8km/h 5.0mph /  8km/h 84% 0.00in /  0mm
16:47 52.8 °F /  11.6 °C 47.8 °F /  8.8 °C 30.19in /  1022.2hPa NNE 8.0mph /  12.9km/h 8.0mph /  12.9km/h 83% 0.00in /  0mm
16:52 53.0 °F /  11.7 °C 48.0 °F /  8.9 °C 30.19in /  1022.2hPa NW 5.0mph /  8km/h 10.0mph /  16.1km/h 83% 0.00in /  0mm
16:53 53.0 °F /  11.7 °C 48.0 °F /  8.9 °C 30.19in /  1022.2hPa NW 5.0mph /  8km/h 10.0mph /  16.1km/h 83% 0.00in /  0mm
16:58 53.1 °F /  11.7 °C 47.8 °F /  8.8 °C 30.20in /  1022.6hPa WNW 5.0mph /  8km/h 8.0mph /  12.9km/h 82% 0.00in /  0mm
17:03 53.6 °F /  12 °C 49.2 °F /  9.6 °C 30.20in /  1022.6hPa North 7.0mph /  11.3km/h 7.0mph /  11.3km/h 85% 0.00in /  0mm
17:08 53.7 °F /  12.1 °C 48.0 °F /  8.9 °C 30.19in /  1022.2hPa NNW 9.0mph /  14.5km/h 11.0mph /  17.7km/h 81% 0.00in /  0mm
17:13 53.7 °F /  12.1 °C 48.3 °F /  9.1 °C 30.19in /  1022.2hPa North 9.0mph /  14.5km/h 9.0mph /  14.5km/h 82% 0.00in /  0mm
17:18 54.1 °F /  12.3 °C 48.1 °F /  8.9 °C 30.20in /  1022.6hPa NW 6.0mph /  9.7km/h 9.0mph /  14.5km/h 80% 0.00in /  0mm
17:23 54.3 °F /  12.4 °C 48.9 °F /  9.4 °C 30.20in /  1022.6hPa NNW 6.0mph /  9.7km/h 7.0mph /  11.3km/h 82% 0.00in /  0mm
17:28 54.2 °F /  12.3 °C 48.2 °F /  9 °C 30.20in /  1022.6hPa NW 3.0mph /  4.8km/h 7.0mph /  11.3km/h 80% 0.00in /  0mm
17:29 54.2 °F /  12.3 °C 48.2 °F /  9 °C 30.20in /  1022.6hPa NW 2.0mph /  3.2km/h 7.0mph /  11.3km/h 80% 0.00in /  0mm
17:30 54.1 °F /  12.3 °C 47.7 °F /  8.7 °C 30.20in /  1022.6hPa WNW 2.0mph /  3.2km/h 7.0mph /  11.3km/h 79% 0.00in /  0mm
17:34 54.0 °F /  12.2 °C 48.0 °F /  8.9 °C 30.20in /  1022.6hPa WNW 6.0mph /  9.7km/h 6.0mph /  9.7km/h 80% 0.00in /  0mm
17:35 53.9 °F /  12.2 °C 48.5 °F /  9.2 °C 30.20in /  1022.6hPa WNW 3.0mph /  4.8km/h 6.0mph /  9.7km/h 82% 0.00in /  0mm
17:36 54.0 °F /  12.2 °C 48.3 °F /  9.1 °C 30.20in /  1022.6hPa WNW 3.0mph /  4.8km/h 6.0mph /  9.7km/h 81% 0.00in /  0mm
17:41 54.1 °F /  12.3 °C 48.1 °F /  8.9 °C 30.20in /  1022.6hPa North 7.0mph /  11.3km/h 10.0mph /  16.1km/h 80% 0.00in /  0mm
17:46 54.6 °F /  12.6 °C 48.9 °F /  9.4 °C 30.20in /  1022.6hPa NW 2.0mph /  3.2km/h 5.0mph /  8km/h 81% 0.00in /  0mm
17:51 54.7 °F /  12.6 °C 49.0 °F /  9.4 °C 30.20in /  1022.6hPa WNW 1.0mph /  1.6km/h 6.0mph /  9.7km/h 81% 0.00in /  0mm
17:56 54.7 °F /  12.6 °C 48.3 °F /  9.1 °C 30.20in /  1022.6hPa NW 5.0mph /  8km/h 9.0mph /  14.5km/h 79% 0.00in /  0mm
17:58 54.8 °F /  12.7 °C 48.1 °F /  8.9 °C 30.20in /  1022.6hPa NW 5.0mph /  8km/h 7.0mph /  11.3km/h 78% 0.00in /  0mm
18:02 55.1 °F /  12.8 °C 48.7 °F /  9.3 °C 30.20in /  1022.6hPa NW 4.0mph /  6.4km/h 8.0mph /  12.9km/h 79% 0.00in /  0mm
18:03 55.3 °F /  12.9 °C 48.6 °F /  9.2 °C 30.20in /  1022.6hPa NNW 3.0mph /  4.8km/h 7.0mph /  11.3km/h 78% 0.00in /  0mm
18:09 55.8 °F /  13.2 °C 49.0 °F /  9.4 °C 30.19in /  1022.2hPa NW 5.0mph /  8km/h 8.0mph /  12.9km/h 78% 0.00in /  0mm
18:14 55.5 °F /  13.1 °C 49.1 °F /  9.5 °C 30.19in /  1022.2hPa NNW 2.0mph /  3.2km/h 6.0mph /  9.7km/h 79% 0.00in /  0mm
18:19 55.5 °F /  13.1 °C 48.8 °F /  9.3 °C 30.20in /  1022.6hPa NNE 3.0mph /  4.8km/h 7.0mph /  11.3km/h 78% 0.00in /  0mm
18:24 55.4 °F /  13 °C 48.7 °F /  9.3 °C 30.20in /  1022.6hPa North 7.0mph /  11.3km/h 7.0mph /  11.3km/h 78% 0.00in /  0mm
18:29 55.4 °F /  13 °C 48.3 °F /  9.1 °C 30.20in /  1022.6hPa North 3.0mph /  4.8km/h 5.0mph /  8km/h 77% 0.00in /  0mm
18:32 55.7 °F /  13.2 °C 49.0 °F /  9.4 °C 30.21in /  1022.9hPa North 3.0mph /  4.8km/h 5.0mph /  8km/h 78% 0.00in /  0mm
18:36 55.9 °F /  13.3 °C 49.2 °F /  9.6 °C 30.20in /  1022.6hPa North 3.0mph /  4.8km/h 4.0mph /  6.4km/h 78% 0.00in /  0mm
18:37 56.0 °F /  13.3 °C 48.9 °F /  9.4 °C 30.20in /  1022.6hPa NE 2.0mph /  3.2km/h 4.0mph /  6.4km/h 77% 0.00in /  0mm
18:42 55.6 °F /  13.1 °C 47.8 °F /  8.8 °C 30.20in /  1022.6hPa NW 5.0mph /  8km/h 7.0mph /  11.3km/h 75% 0.00in /  0mm
18:47 55.6 °F /  13.1 °C 48.2 °F /  9 °C 30.20in /  1022.6hPa NW 4.0mph /  6.4km/h 6.0mph /  9.7km/h 76% 0.00in /  0mm
18:50 55.9 °F /  13.3 °C 48.5 °F /  9.2 °C 30.20in /  1022.6hPa NNW 3.0mph /  4.8km/h 6.0mph /  9.7km/h 76% 0.00in /  0mm
18:52 56.1 °F /  13.4 °C 48.3 °F /  9.1 °C 30.20in /  1022.6hPa NNE 5.0mph /  8km/h 7.0mph /  11.3km/h 75% 0.00in /  0mm
18:54 56.1 °F /  13.4 °C 48.3 °F /  9.1 °C 30.20in /  1022.6hPa NE 4.0mph /  6.4km/h 7.0mph /  11.3km/h 75% 0.00in /  0mm
18:56 56.2 °F /  13.4 °C 48.8 °F /  9.3 °C 30.20in /  1022.6hPa North 3.0mph /  4.8km/h 6.0mph /  9.7km/h 76% 0.00in /  0mm
18:57 56.3 °F /  13.5 °C 48.8 °F /  9.3 °C 30.20in /  1022.6hPa NW 2.0mph /  3.2km/h 5.0mph /  8km/h 76% 0.00in /  0mm
18:59 56.3 °F /  13.5 °C 48.5 °F /  9.2 °C 30.20in /  1022.6hPa NNW 4.0mph /  6.4km/h 5.0mph /  8km/h 75% 0.00in /  0mm
19:02 56.2 °F /  13.4 °C 48.0 °F /  8.9 °C 30.19in /  1022.2hPa NE 3.0mph /  4.8km/h 7.0mph /  11.3km/h 74% 0.00in /  0mm
19:04 56.2 °F /  13.4 °C 48.0 °F /  8.9 °C 30.20in /  1022.6hPa NW 3.0mph /  4.8km/h 7.0mph /  11.3km/h 74% 0.00in /  0mm
19:09 56.0 °F /  13.3 °C 47.5 °F /  8.6 °C 30.20in /  1022.6hPa NW 4.0mph /  6.4km/h 7.0mph /  11.3km/h 73% 0.00in /  0mm
19:15 55.5 °F /  13.1 °C 47.4 °F /  8.6 °C 30.20in /  1022.6hPa NNW 4.0mph /  6.4km/h 4.0mph /  6.4km/h 74% 0.00in /  0mm
19:21 55.3 °F /  12.9 °C 47.9 °F /  8.8 °C 30.21in /  1022.9hPa WNW 1.0mph /  1.6km/h 3.0mph /  4.8km/h 76% 0.00in /  0mm
19:30 55.3 °F /  12.9 °C 48.6 °F /  9.2 °C 30.20in /  1022.6hPa NNW 2.0mph /  3.2km/h 2.0mph /  3.2km/h 78% 0.00in /  0mm
19:31 55.4 °F /  13 °C 48.7 °F /  9.3 °C 30.20in /  1022.6hPa NNW 1.0mph /  1.6km/h 2.0mph /  3.2km/h 78% 0.00in /  0mm
19:35 55.5 °F /  13.1 °C 48.1 °F /  8.9 °C 30.20in /  1022.6hPa NW 1.0mph /  1.6km/h 2.0mph /  3.2km/h 76% 0.00in /  0mm
19:37 55.5 °F /  13.1 °C 48.1 °F /  8.9 °C 30.21in /  1022.9hPa NW 1.0mph /  1.6km/h 2.0mph /  3.2km/h 76% 0.00in /  0mm
19:43 55.6 °F /  13.1 °C 48.9 °F /  9.4 °C 30.21in /  1022.9hPa Calm   1.0mph /  1.6km/h 78% 0.00in /  0mm
19:48 55.9 °F /  13.3 °C 48.1 °F /  8.9 °C 30.21in /  1022.9hPa Calm   2.0mph /  3.2km/h 75% 0.00in /  0mm
19:53 56.1 °F /  13.4 °C 48.3 °F /  9.1 °C 30.21in /  1022.9hPa WNW 2.0mph /  3.2km/h 2.0mph /  3.2km/h 75% 0.00in /  0mm
19:54 56.1 °F /  13.4 °C 48.3 °F /  9.1 °C 30.21in /  1022.9hPa WNW 2.0mph /  3.2km/h 2.0mph /  3.2km/h 75% 0.00in /  0mm
19:56 56.2 °F /  13.4 °C 48.0 °F /  8.9 °C 30.21in /  1022.9hPa NW 1.0mph /  1.6km/h 3.0mph /  4.8km/h 74% 0.00in /  0mm
19:58 56.3 °F /  13.5 °C 48.8 °F /  9.3 °C 30.21in /  1022.9hPa NW 1.0mph /  1.6km/h 2.0mph /  3.2km/h 76% 0.00in /  0mm
20:03 56.5 °F /  13.6 °C 48.3 °F /  9.1 °C 30.21in /  1022.9hPa NW 1.0mph /  1.6km/h 2.0mph /  3.2km/h 74% 0.00in /  0mm
20:08 56.3 °F /  13.5 °C 48.1 °F /  8.9 °C 30.21in /  1022.9hPa West 1.0mph /  1.6km/h 2.0mph /  3.2km/h 74% 0.00in /  0mm
20:09 56.3 °F /  13.5 °C 48.1 °F /  8.9 °C 30.21in /  1022.9hPa WNW 2.0mph /  3.2km/h 2.0mph /  3.2km/h 74% 0.00in /  0mm
20:14 55.9 °F /  13.3 °C 47.7 °F /  8.7 °C 30.21in /  1022.9hPa WNW 1.0mph /  1.6km/h 2.0mph /  3.2km/h 74% 0.00in /  0mm
20:19 55.3 °F /  12.9 °C 47.9 °F /  8.8 °C 30.21in /  1022.9hPa Calm   1.0mph /  1.6km/h 76% 0.00in /  0mm
20:20 55.2 °F /  12.9 °C 47.8 °F /  8.8 °C 30.21in /  1022.9hPa Calm   1.0mph /  1.6km/h 76% 0.00in /  0mm
20:24 54.7 °F /  12.6 °C 48.0 °F /  8.9 °C 30.21in /  1022.9hPa Calm     78% 0.00in /  0mm
20:25 54.7 °F /  12.6 °C 48.0 °F /  8.9 °C 30.22in /  1023.2hPa Calm     78% 0.00in /  0mm
20:30 54.3 °F /  12.4 °C 47.9 °F /  8.8 °C 30.22in /  1023.2hPa Calm     79% 0.00in /  0mm
20:31 54.2 °F /  12.3 °C 47.8 °F /  8.8 °C 30.22in /  1023.2hPa Calm     79% 0.00in /  0mm
20:32 54.1 °F /  12.3 °C 47.7 °F /  8.7 °C 30.22in /  1023.2hPa Calm     79% 0.00in /  0mm
20:35 53.8 °F /  12.1 °C 47.8 °F /  8.8 °C 30.22in /  1023.2hPa Calm     80% 0.00in /  0mm
20:36 53.7 °F /  12.1 °C 47.7 °F /  8.7 °C 30.22in /  1023.2hPa Calm     80% 0.00in /  0mm
20:41 53.1 °F /  11.7 °C 47.4 °F /  8.6 °C 30.22in /  1023.2hPa Calm     81% 0.00in /  0mm
20:46 52.6 °F /  11.4 °C 47.3 °F /  8.5 °C 30.22in /  1023.2hPa Calm     82% 0.00in /  0mm
20:51 52.0 °F /  11.1 °C 47.6 °F /  8.7 °C 30.22in /  1023.2hPa Calm     85% 0.00in /  0mm
20:52 52.0 °F /  11.1 °C 48.3 °F /  9.1 °C 30.22in /  1023.2hPa Calm     87% 0.00in /  0mm
20:54 51.7 °F /  10.9 °C 48.0 °F /  8.9 °C 30.22in /  1023.2hPa Calm     87% 0.00in /  0mm
20:57 51.2 °F /  10.7 °C 47.8 °F /  8.8 °C 30.22in /  1023.2hPa Calm     88% 0.00in /  0mm
20:58 51.0 °F /  10.6 °C 47.6 °F /  8.7 °C 30.22in /  1023.2hPa Calm     88% 0.00in /  0mm
21:03 50.5 °F /  10.3 °C 47.4 °F /  8.6 °C 30.23in /  1023.6hPa Calm     89% 0.00in /  0mm
21:08 50.1 °F /  10.1 °C 47.3 °F /  8.5 °C 30.23in /  1023.6hPa Calm     90% 0.00in /  0mm
21:13 49.7 °F /  9.8 °C 47.2 °F /  8.4 °C 30.23in /  1023.6hPa Calm     91% 0.00in /  0mm
21:14 49.7 °F /  9.8 °C 47.5 °F /  8.6 °C 30.23in /  1023.6hPa Calm     92% 0.00in /  0mm
21:20 49.5 °F /  9.7 °C 47.3 °F /  8.5 °C 30.23in /  1023.6hPa East 1.0mph /  1.6km/h 2.0mph /  3.2km/h 92% 0.00in /  0mm
21:21 49.6 °F /  9.8 °C 47.7 °F /  8.7 °C 30.23in /  1023.6hPa East 1.0mph /  1.6km/h 2.0mph /  3.2km/h 93% 0.00in /  0mm
21:26 49.6 °F /  9.8 °C 47.7 °F /  8.7 °C 30.23in /  1023.6hPa East 1.0mph /  1.6km/h 2.0mph /  3.2km/h 93% 0.00in /  0mm
21:31 49.7 °F /  9.8 °C 48.0 °F /  8.9 °C 30.23in /  1023.6hPa East 2.0mph /  3.2km/h 2.0mph /  3.2km/h 94% 0.00in /  0mm
21:36 49.8 °F /  9.9 °C 47.9 °F /  8.8 °C 30.23in /  1023.6hPa ESE 1.0mph /  1.6km/h 1.0mph /  1.6km/h 93% 0.00in /  0mm
21:37 49.8 °F /  9.9 °C 47.9 °F /  8.8 °C 30.23in /  1023.6hPa East 1.0mph /  1.6km/h 1.0mph /  1.6km/h 93% 0.00in /  0mm
21:43 49.6 °F /  9.8 °C 47.7 °F /  8.7 °C 30.24in /  1023.9hPa Calm     93% 0.00in /  0mm
21:48 49.2 °F /  9.6 °C 47.3 °F /  8.5 °C 30.24in /  1023.9hPa Calm     93% 0.00in /  0mm
21:56 48.4 °F /  9.1 °C 46.8 °F /  8.2 °C 30.24in /  1023.9hPa Calm     94% 0.00in /  0mm
21:58 48.3 °F /  9.1 °C 46.7 °F /  8.2 °C 30.24in /  1023.9hPa Calm     94% 0.00in /  0mm
22:03 48.1 °F /  8.9 °C 46.7 °F /  8.2 °C 30.24in /  1023.9hPa Calm     95% 0.00in /  0mm
22:05 47.9 °F /  8.8 °C 46.5 °F /  8.1 °C 30.24in /  1023.9hPa Calm     95% 0.00in /  0mm
22:09 47.6 °F /  8.7 °C 46.2 °F /  7.9 °C 30.24in /  1023.9hPa Calm     95% 0.00in /  0mm
22:10 47.5 °F /  8.6 °C 46.1 °F /  7.8 °C 30.24in /  1023.9hPa Calm     95% 0.00in /  0mm
22:15 47.3 °F /  8.5 °C 46.2 °F /  7.9 °C 30.24in /  1023.9hPa Calm     96% 0.00in /  0mm
22:20 47.0 °F /  8.3 °C 45.9 °F /  7.7 °C 30.24in /  1023.9hPa Calm     96% 0.00in /  0mm
22:26 46.8 °F /  8.2 °C 45.7 °F /  7.6 °C 30.24in /  1023.9hPa Calm     96% 0.00in /  0mm
22:27 46.8 °F /  8.2 °C 45.7 °F /  7.6 °C 30.24in /  1023.9hPa Calm     96% 0.00in /  0mm
22:31 46.8 °F /  8.2 °C 46.0 °F /  7.8 °C 30.25in /  1024.3hPa Calm     97% 0.00in /  0mm
22:32 46.7 °F /  8.2 °C 45.9 °F /  7.7 °C 30.25in /  1024.3hPa Calm     97% 0.00in /  0mm
22:39 46.6 °F /  8.1 °C 45.8 °F /  7.7 °C 30.24in /  1023.9hPa Calm     97% 0.00in /  0mm
22:44 46.3 °F /  7.9 °C 45.5 °F /  7.5 °C 30.25in /  1024.3hPa Calm     97% 0.00in /  0mm
22:50 46.2 °F /  7.9 °C 45.4 °F /  7.4 °C 30.25in /  1024.3hPa Calm     97% 0.00in /  0mm
22:51 46.2 °F /  7.9 °C 45.4 °F /  7.4 °C 30.25in /  1024.3hPa Calm     97% 0.00in /  0mm
22:56 45.9 °F /  7.7 °C 45.1 °F /  7.3 °C 30.25in /  1024.3hPa Calm     97% 0.00in /  0mm
22:58 45.7 °F /  7.6 °C 44.9 °F /  7.2 °C 30.25in /  1024.3hPa Calm     97% 0.00in /  0mm
23:01 45.8 °F /  7.7 °C 45.0 °F /  7.2 °C 30.25in /  1024.3hPa Calm     97% 0.00in /  0mm
23:03 45.8 °F /  7.7 °C 45.0 °F /  7.2 °C 30.25in /  1024.3hPa Calm     97% 0.00in /  0mm
23:08 45.8 °F /  7.7 °C 45.3 °F /  7.4 °C 30.26in /  1024.6hPa Calm     98% 0.00in /  0mm
23:13 45.8 °F /  7.7 °C 45.3 °F /  7.4 °C 30.26in /  1024.6hPa Calm     98% 0.00in /  0mm
23:18 46.0 °F /  7.8 °C 45.5 °F /  7.5 °C 30.26in /  1024.6hPa Calm     98% 0.00in /  0mm
23:24 45.7 °F /  7.6 °C 45.2 °F /  7.3 °C 30.26in /  1024.6hPa Calm     98% 0.00in /  0mm
23:29 45.5 °F /  7.5 °C 45.0 °F /  7.2 °C 30.26in /  1024.6hPa Calm     98% 0.00in /  0mm
23:34 45.6 °F /  7.6 °C 45.1 °F /  7.3 °C 30.26in /  1024.6hPa Calm     98% 0.00in /  0mm
23:35 45.6 °F /  7.6 °C 45.1 °F /  7.3 °C 30.26in /  1024.6hPa Calm     98% 0.00in /  0mm
23:36 45.5 °F /  7.5 °C 45.0 °F /  7.2 °C 30.25in /  1024.3hPa Calm     98% 0.00in /  0mm
23:41 45.1 °F /  7.3 °C 44.6 °F /  7 °C 30.25in /  1024.3hPa Calm     98% 0.00in /  0mm
23:46 44.8 °F /  7.1 °C 44.3 °F /  6.8 °C 30.26in /  1024.6hPa Calm     98% 0.00in /  0mm
23:51 44.6 °F /  7 °C 44.1 °F /  6.7 °C 30.25in /  1024.3hPa Calm     98% 0.00in /  0mm
23:52 44.6 °F /  7 °C 44.1 °F /  6.7 °C 30.25in /  1024.3hPa Calm     98% 0.00in /  0mm
23:53 44.6 °F /  7 °C 44.1 °F /  6.7 °C 30.25in /  1024.3hPa Calm     98% 0.00in /  0mm
23:57 44.6 °F /  7 °C 44.1 °F /  6.7 °C 30.25in /  1024.3hPa Calm     98% 0.00in /  0mm
23:58 44.6 °F /  7 °C 44.1 °F /  6.7 °C 30.25in /  1024.3hPa Calm     98% 0.00in /  0mm
Compliments of Weather Underground